sensor_id;sensor_type;location;lat;lon;timestamp;pressure;altitude;pressure_sealevel;temperature;humidity
51053;BME280;37093;37.716;-122.060;2023-04-26T00:01:06;99607.28;;;26.35;23.40
51053;BME280;37093;37.716;-122.060;2023-04-26T00:03:34;99605.27;;;26.28;23.61
51053;BME280;37093;37.716;-122.060;2023-04-26T00:06:03;99605.25;;;26.61;23.55
51053;BME280;37093;37.716;-122.060;2023-04-26T00:08:31;99606.34;;;26.37;23.10
51053;BME280;37093;37.716;-122.060;2023-04-26T00:11:00;99609.27;;;26.67;21.80
51053;BME280;37093;37.716;-122.060;2023-04-26T00:13:28;99605.07;;;26.67;22.18
51053;BME280;37093;37.716;-122.060;2023-04-26T00:15:57;99609.45;;;26.62;22.33
51053;BME280;37093;37.716;-122.060;2023-04-26T00:18:25;99614.79;;;26.38;22.48
51053;BME280;37093;37.716;-122.060;2023-04-26T00:20:53;99608.38;;;26.73;22.24
51053;BME280;37093;37.716;-122.060;2023-04-26T00:23:22;99611.32;;;26.69;21.87
51053;BME280;37093;37.716;-122.060;2023-04-26T00:25:50;99615.66;;;26.31;22.51
51053;BME280;37093;37.716;-122.060;2023-04-26T00:28:18;99617.15;;;26.75;21.42
51053;BME280;37093;37.716;-122.060;2023-04-26T00:30:46;99616.32;;;26.05;21.53
51053;BME280;37093;37.716;-122.060;2023-04-26T00:33:15;99615.86;;;26.27;20.88
51053;BME280;37093;37.716;-122.060;2023-04-26T00:35:43;99614.67;;;26.39;19.58
51053;BME280;37093;37.716;-122.060;2023-04-26T00:38:12;99625.94;;;25.88;20.02
51053;BME280;37093;37.716;-122.060;2023-04-26T00:40:40;99623.99;;;25.83;19.75
51053;BME280;37093;37.716;-122.060;2023-04-26T00:43:09;99625.21;;;26.11;18.79
51053;BME280;37093;37.716;-122.060;2023-04-26T00:45:37;99622.62;;;26.22;18.70
51053;BME280;37093;37.716;-122.060;2023-04-26T00:48:06;99622.18;;;26.55;19.40
51053;BME280;37093;37.716;-122.060;2023-04-26T00:50:35;99625.23;;;26.29;19.87
51053;BME280;37093;37.716;-122.060;2023-04-26T00:53:04;99623.49;;;26.87;19.99
51053;BME280;37093;37.716;-122.060;2023-04-26T00:55:32;99622.01;;;26.73;20.62
51053;BME280;37093;37.716;-122.060;2023-04-26T00:58:01;99623.82;;;26.96;20.76
51053;BME280;37093;37.716;-122.060;2023-04-26T01:00:30;99624.34;;;26.53;21.08
51053;BME280;37093;37.716;-122.060;2023-04-26T01:02:58;99624.79;;;26.32;21.94
51053;BME280;37093;37.716;-122.060;2023-04-26T01:05:26;99626.44;;;26.26;22.03
51053;BME280;37093;37.716;-122.060;2023-04-26T01:07:55;99627.49;;;25.42;22.84
51053;BME280;37093;37.716;-122.060;2023-04-26T01:10:24;99621.65;;;26.06;22.22
51053;BME280;37093;37.716;-122.060;2023-04-26T01:12:52;99622.28;;;26.14;22.18
51053;BME280;37093;37.716;-122.060;2023-04-26T01:15:21;99625.31;;;25.47;22.52
51053;BME280;37093;37.716;-122.060;2023-04-26T01:17:49;99625.47;;;25.53;22.51
51053;BME280;37093;37.716;-122.060;2023-04-26T01:20:18;99627.88;;;25.22;23.00
51053;BME280;37093;37.716;-122.060;2023-04-26T01:22:46;99632.20;;;25.05;23.03
51053;BME280;37093;37.716;-122.060;2023-04-26T01:25:16;99632.71;;;25.21;23.07
51053;BME280;37093;37.716;-122.060;2023-04-26T01:27:44;99635.13;;;25.19;22.99
51053;BME280;37093;37.716;-122.060;2023-04-26T01:30:13;99634.09;;;25.01;22.71
51053;BME280;37093;37.716;-122.060;2023-04-26T01:32:41;99636.84;;;25.57;22.14
51053;BME280;37093;37.716;-122.060;2023-04-26T01:35:10;99641.42;;;24.80;23.07
51053;BME280;37093;37.716;-122.060;2023-04-26T01:37:38;99649.16;;;25.76;22.31
51053;BME280;37093;37.716;-122.060;2023-04-26T01:40:08;99646.69;;;25.18;22.12
51053;BME280;37093;37.716;-122.060;2023-04-26T01:42:36;99647.15;;;25.06;22.36
51053;BME280;37093;37.716;-122.060;2023-04-26T01:45:06;99644.63;;;25.55;21.31
51053;BME280;37093;37.716;-122.060;2023-04-26T01:47:34;99645.34;;;25.69;21.17
51053;BME280;37093;37.716;-122.060;2023-04-26T01:50:03;99646.68;;;25.59;21.85
51053;BME280;37093;37.716;-122.060;2023-04-26T01:52:31;99643.61;;;25.06;22.06
51053;BME280;37093;37.716;-122.060;2023-04-26T01:54:59;99647.23;;;25.10;22.14
51053;BME280;37093;37.716;-122.060;2023-04-26T01:57:28;99650.76;;;25.53;21.64
51053;BME280;37093;37.716;-122.060;2023-04-26T01:59:56;99652.59;;;24.90;22.21
51053;BME280;37093;37.716;-122.060;2023-04-26T02:02:26;99652.93;;;25.62;21.55
51053;BME280;37093;37.716;-122.060;2023-04-26T02:04:54;99655.62;;;25.51;21.73
51053;BME280;37093;37.716;-122.060;2023-04-26T02:07:23;99660.30;;;25.39;22.03
51053;BME280;37093;37.716;-122.060;2023-04-26T02:09:51;99661.70;;;25.53;22.11
51053;BME280;37093;37.716;-122.060;2023-04-26T02:12:20;99662.83;;;25.71;22.12
51053;BME280;37093;37.716;-122.060;2023-04-26T02:14:48;99662.84;;;25.48;22.00
51053;BME280;37093;37.716;-122.060;2023-04-26T02:17:17;99663.57;;;25.61;22.08
51053;BME280;37093;37.716;-122.060;2023-04-26T02:19:45;99661.91;;;25.55;21.78
51053;BME280;37093;37.716;-122.060;2023-04-26T02:22:14;99668.53;;;25.39;22.30
51053;BME280;37093;37.716;-122.060;2023-04-26T02:24:42;99670.19;;;25.48;22.32
51053;BME280;37093;37.716;-122.060;2023-04-26T02:27:11;99673.51;;;25.37;22.31
51053;BME280;37093;37.716;-122.060;2023-04-26T02:29:39;99675.86;;;25.08;23.13
51053;BME280;37093;37.716;-122.060;2023-04-26T02:32:08;99683.68;;;25.10;23.30
51053;BME280;37093;37.716;-122.060;2023-04-26T02:34:37;99684.23;;;25.16;23.79
51053;BME280;37093;37.716;-122.060;2023-04-26T02:37:05;99683.53;;;25.05;24.41
51053;BME280;37093;37.716;-122.060;2023-04-26T02:39:34;99693.53;;;25.24;24.29
51053;BME280;37093;37.716;-122.060;2023-04-26T02:42:02;99692.87;;;25.44;24.37
51053;BME280;37093;37.716;-122.060;2023-04-26T02:44:30;99695.00;;;25.40;24.21
51053;BME280;37093;37.716;-122.060;2023-04-26T02:46:59;99695.33;;;25.37;24.28
51053;BME280;37093;37.716;-122.060;2023-04-26T02:49:28;99697.70;;;25.19;24.67
51053;BME280;37093;37.716;-122.060;2023-04-26T02:51:56;99698.59;;;25.11;25.40
51053;BME280;37093;37.716;-122.060;2023-04-26T02:54:25;99701.42;;;24.81;25.68
51053;BME280;37093;37.716;-122.060;2023-04-26T02:56:53;99703.89;;;24.86;26.24
51053;BME280;37093;37.716;-122.060;2023-04-26T02:59:21;99705.44;;;24.81;25.77
51053;BME280;37093;37.716;-122.060;2023-04-26T03:01:50;99706.07;;;25.05;25.72
51053;BME280;37093;37.716;-122.060;2023-04-26T03:04:19;99706.57;;;24.66;26.52
51053;BME280;37093;37.716;-122.060;2023-04-26T03:06:47;99710.83;;;24.76;25.47
51053;BME280;37093;37.716;-122.060;2023-04-26T03:09:15;99710.34;;;24.39;25.61
51053;BME280;37093;37.716;-122.060;2023-04-26T03:11:44;99714.21;;;24.39;26.07
51053;BME280;37093;37.716;-122.060;2023-04-26T03:14:12;99719.87;;;24.48;25.86
51053;BME280;37093;37.716;-122.060;2023-04-26T03:16:42;99722.09;;;24.59;26.36
51053;BME280;37093;37.716;-122.060;2023-04-26T03:19:10;99725.34;;;24.28;26.48
51053;BME280;37093;37.716;-122.060;2023-04-26T03:21:39;99726.41;;;24.67;26.60
51053;BME280;37093;37.716;-122.060;2023-04-26T03:24:08;99726.20;;;24.27;26.66
51053;BME280;37093;37.716;-122.060;2023-04-26T03:26:36;99729.84;;;24.44;26.32
51053;BME280;37093;37.716;-122.060;2023-04-26T03:29:05;99733.18;;;24.07;26.80
51053;BME280;37093;37.716;-122.060;2023-04-26T03:31:34;99733.86;;;23.75;26.89
51053;BME280;37093;37.716;-122.060;2023-04-26T03:34:02;99731.78;;;23.72;26.85
51053;BME280;37093;37.716;-122.060;2023-04-26T03:36:30;99733.12;;;23.80;26.81
51053;BME280;37093;37.716;-122.060;2023-04-26T03:38:59;99729.45;;;24.03;27.37
51053;BME280;37093;37.716;-122.060;2023-04-26T03:41:27;99729.91;;;24.01;27.41
51053;BME280;37093;37.716;-122.060;2023-04-26T03:43:56;99730.16;;;23.84;27.80
51053;BME280;37093;37.716;-122.060;2023-04-26T03:46:24;99729.60;;;23.47;28.09
51053;BME280;37093;37.716;-122.060;2023-04-26T03:48:53;99726.92;;;23.63;27.87
51053;BME280;37093;37.716;-122.060;2023-04-26T03:51:21;99726.18;;;23.37;27.67
51053;BME280;37093;37.716;-122.060;2023-04-26T03:53:50;99736.09;;;23.52;27.86
51053;BME280;37093;37.716;-122.060;2023-04-26T03:56:18;99736.76;;;23.34;28.27
51053;BME280;37093;37.716;-122.060;2023-04-26T03:58:46;99735.84;;;23.30;28.44
51053;BME280;37093;37.716;-122.060;2023-04-26T04:01:15;99734.43;;;23.10;28.82
51053;BME280;37093;37.716;-122.060;2023-04-26T04:03:43;99738.99;;;22.99;28.83
51053;BME280;37093;37.716;-122.060;2023-04-26T04:06:12;99745.12;;;22.91;28.87
51053;BME280;37093;37.716;-122.060;2023-04-26T04:08:41;99752.02;;;22.80;28.75
51053;BME280;37093;37.716;-122.060;2023-04-26T04:11:10;99753.31;;;22.73;28.68
51053;BME280;37093;37.716;-122.060;2023-04-26T04:13:38;99750.64;;;22.88;29.09
51053;BME280;37093;37.716;-122.060;2023-04-26T04:16:07;99752.75;;;22.58;28.75
51053;BME280;37093;37.716;-122.060;2023-04-26T04:18:35;99753.64;;;22.80;29.06
51053;BME280;37093;37.716;-122.060;2023-04-26T04:21:04;99757.70;;;22.68;29.28
51053;BME280;37093;37.716;-122.060;2023-04-26T04:23:32;99760.79;;;22.38;29.24
51053;BME280;37093;37.716;-122.060;2023-04-26T04:26:00;99765.32;;;22.74;29.22
51053;BME280;37093;37.716;-122.060;2023-04-26T04:28:29;99763.11;;;22.40;29.43
51053;BME280;37093;37.716;-122.060;2023-04-26T04:30:58;99761.30;;;21.82;30.40
51053;BME280;37093;37.716;-122.060;2023-04-26T04:33:26;99769.38;;;22.08;30.23
51053;BME280;37093;37.716;-122.060;2023-04-26T04:35:56;99766.05;;;22.03;30.22
51053;BME280;37093;37.716;-122.060;2023-04-26T04:38:24;99765.61;;;22.21;30.66
51053;BME280;37093;37.716;-122.060;2023-04-26T04:40:53;99766.56;;;21.92;30.75
51053;BME280;37093;37.716;-122.060;2023-04-26T04:43:21;99767.11;;;21.79;30.79
51053;BME280;37093;37.716;-122.060;2023-04-26T04:45:50;99769.04;;;21.76;30.61
51053;BME280;37093;37.716;-122.060;2023-04-26T04:48:19;99770.45;;;21.88;30.41
51053;BME280;37093;37.716;-122.060;2023-04-26T04:50:48;99773.68;;;21.58;29.97
51053;BME280;37093;37.716;-122.060;2023-04-26T04:53:17;99774.56;;;21.49;29.86
51053;BME280;37093;37.716;-122.060;2023-04-26T04:55:45;99779.48;;;21.50;29.52
51053;BME280;37093;37.716;-122.060;2023-04-26T04:58:14;99785.68;;;21.67;29.31
51053;BME280;37093;37.716;-122.060;2023-04-26T05:00:43;99787.18;;;21.36;29.55
51053;BME280;37093;37.716;-122.060;2023-04-26T05:03:12;99787.45;;;21.49;29.43
51053;BME280;37093;37.716;-122.060;2023-04-26T05:05:41;99788.13;;;21.44;29.48
51053;BME280;37093;37.716;-122.060;2023-04-26T05:08:10;99793.17;;;21.68;29.90
51053;BME280;37093;37.716;-122.060;2023-04-26T05:10:39;99794.11;;;21.21;30.57
51053;BME280;37093;37.716;-122.060;2023-04-26T05:13:07;99793.05;;;21.37;30.65
51053;BME280;37093;37.716;-122.060;2023-04-26T05:15:36;99794.29;;;21.04;30.25
51053;BME280;37093;37.716;-122.060;2023-04-26T05:18:04;99789.73;;;20.97;30.08
51053;BME280;37093;37.716;-122.060;2023-04-26T05:20:33;99788.10;;;20.88;30.43
51053;BME280;37093;37.716;-122.060;2023-04-26T05:23:01;99794.39;;;20.74;30.63
51053;BME280;37093;37.716;-122.060;2023-04-26T05:25:30;99795.25;;;20.93;30.35
51053;BME280;37093;37.716;-122.060;2023-04-26T05:27:58;99795.47;;;20.86;30.20
51053;BME280;37093;37.716;-122.060;2023-04-26T05:30:27;99801.04;;;20.78;30.52
51053;BME280;37093;37.716;-122.060;2023-04-26T05:32:56;99799.61;;;20.70;30.44
51053;BME280;37093;37.716;-122.060;2023-04-26T05:35:24;99795.16;;;20.68;30.14
51053;BME280;37093;37.716;-122.060;2023-04-26T05:37:53;99796.79;;;20.64;30.21
51053;BME280;37093;37.716;-122.060;2023-04-26T05:40:22;99797.82;;;20.59;30.43
51053;BME280;37093;37.716;-122.060;2023-04-26T05:42:50;99795.63;;;20.83;30.69
51053;BME280;37093;37.716;-122.060;2023-04-26T05:45:19;99797.04;;;20.29;30.67
51053;BME280;37093;37.716;-122.060;2023-04-26T05:47:48;99799.29;;;20.58;31.00
51053;BME280;37093;37.716;-122.060;2023-04-26T05:50:16;99800.25;;;20.52;30.96
51053;BME280;37093;37.716;-122.060;2023-04-26T05:52:44;99799.86;;;20.46;31.19
51053;BME280;37093;37.716;-122.060;2023-04-26T05:55:13;99801.69;;;20.37;31.33
51053;BME280;37093;37.716;-122.060;2023-04-26T05:57:41;99802.02;;;20.33;31.53
51053;BME280;37093;37.716;-122.060;2023-04-26T06:00:11;99803.01;;;20.21;31.44
51053;BME280;37093;37.716;-122.060;2023-04-26T06:02:39;99802.76;;;20.57;31.45
51053;BME280;37093;37.716;-122.060;2023-04-26T06:05:08;99803.90;;;20.02;31.43
51053;BME280;37093;37.716;-122.060;2023-04-26T06:07:36;99807.01;;;20.17;31.81
51053;BME280;37093;37.716;-122.060;2023-04-26T06:10:06;99805.86;;;20.09;32.22
51053;BME280;37093;37.716;-122.060;2023-04-26T06:12:35;99803.96;;;20.02;32.49
51053;BME280;37093;37.716;-122.060;2023-04-26T06:15:04;99804.78;;;19.93;32.64
51053;BME280;37093;37.716;-122.060;2023-04-26T06:17:33;99805.52;;;20.11;33.09
51053;BME280;37093;37.716;-122.060;2023-04-26T06:20:01;99804.18;;;19.81;33.00
51053;BME280;37093;37.716;-122.060;2023-04-26T06:22:30;99803.83;;;19.97;32.55
51053;BME280;37093;37.716;-122.060;2023-04-26T06:24:59;99800.03;;;19.87;32.79
51053;BME280;37093;37.716;-122.060;2023-04-26T06:27:27;99803.69;;;19.87;32.82
51053;BME280;37093;37.716;-122.060;2023-04-26T06:29:56;99802.81;;;19.39;33.28
51053;BME280;37093;37.716;-122.060;2023-04-26T06:32:25;99800.93;;;19.34;33.40
51053;BME280;37093;37.716;-122.060;2023-04-26T06:34:54;99799.91;;;18.99;33.62
51053;BME280;37093;37.716;-122.060;2023-04-26T06:37:22;99802.02;;;19.16;33.27
51053;BME280;37093;37.716;-122.060;2023-04-26T06:39:50;99803.57;;;18.87;33.39
51053;BME280;37093;37.716;-122.060;2023-04-26T06:42:19;99804.55;;;19.03;33.39
51053;BME280;37093;37.716;-122.060;2023-04-26T06:44:48;99806.20;;;19.32;33.31
51053;BME280;37093;37.716;-122.060;2023-04-26T06:47:16;99803.84;;;19.14;32.83
51053;BME280;37093;37.716;-122.060;2023-04-26T06:49:45;99803.51;;;19.26;33.08
51053;BME280;37093;37.716;-122.060;2023-04-26T06:52:13;99805.55;;;18.78;33.24
51053;BME280;37093;37.716;-122.060;2023-04-26T06:54:42;99806.96;;;18.67;33.69
51053;BME280;37093;37.716;-122.060;2023-04-26T06:57:11;99809.72;;;18.67;33.31
51053;BME280;37093;37.716;-122.060;2023-04-26T06:59:39;99811.38;;;18.88;33.20
51053;BME280;37093;37.716;-122.060;2023-04-26T07:01:10;99809.13;;;18.24;33.49
51053;BME280;37093;37.716;-122.060;2023-04-26T07:03:39;99805.16;;;17.63;32.36
51053;BME280;37093;37.716;-122.060;2023-04-26T07:06:08;99802.83;;;19.71;30.83
51053;BME280;37093;37.716;-122.060;2023-04-26T07:08:36;99803.35;;;19.76;31.45
51053;BME280;37093;37.716;-122.060;2023-04-26T07:11:11;99804.74;;;19.55;31.90
51053;BME280;37093;37.716;-122.060;2023-04-26T07:13:39;99806.38;;;19.07;32.19
51053;BME280;37093;37.716;-122.060;2023-04-26T07:16:08;99805.20;;;18.82;32.37
51053;BME280;37093;37.716;-122.060;2023-04-26T07:18:37;99800.54;;;18.58;32.86
51053;BME280;37093;37.716;-122.060;2023-04-26T07:21:05;99805.13;;;18.96;32.95
51053;BME280;37093;37.716;-122.060;2023-04-26T07:23:34;99807.69;;;18.68;32.74
51053;BME280;37093;37.716;-122.060;2023-04-26T07:26:02;99804.99;;;18.68;32.97
51053;BME280;37093;37.716;-122.060;2023-04-26T07:28:31;99805.29;;;18.90;32.71
51053;BME280;37093;37.716;-122.060;2023-04-26T07:31:00;99808.18;;;18.63;32.29
51053;BME280;37093;37.716;-122.060;2023-04-26T07:33:28;99808.63;;;18.79;32.24
51053;BME280;37093;37.716;-122.060;2023-04-26T07:35:58;99808.29;;;18.82;32.17
51053;BME280;37093;37.716;-122.060;2023-04-26T07:38:27;99804.98;;;18.55;32.35
51053;BME280;37093;37.716;-122.060;2023-04-26T07:40:55;99808.67;;;18.35;32.69
51053;BME280;37093;37.716;-122.060;2023-04-26T07:43:24;99803.71;;;18.34;32.85
51053;BME280;37093;37.716;-122.060;2023-04-26T07:45:52;99808.76;;;18.40;33.00
51053;BME280;37093;37.716;-122.060;2023-04-26T07:48:21;99807.41;;;18.44;32.76
51053;BME280;37093;37.716;-122.060;2023-04-26T07:50:50;99806.47;;;18.44;32.59
51053;BME280;37093;37.716;-122.060;2023-04-26T07:53:18;99805.24;;;18.42;32.44
51053;BME280;37093;37.716;-122.060;2023-04-26T07:55:47;99804.78;;;18.07;32.26
51053;BME280;37093;37.716;-122.060;2023-04-26T07:58:15;99802.09;;;18.32;32.08
51053;BME280;37093;37.716;-122.060;2023-04-26T08:00:44;99805.86;;;18.28;31.92
51053;BME280;37093;37.716;-122.060;2023-04-26T08:03:15;99805.28;;;18.30;31.89
51053;BME280;37093;37.716;-122.060;2023-04-26T08:05:44;99811.13;;;18.05;32.24
51053;BME280;37093;37.716;-122.060;2023-04-26T08:08:12;99811.90;;;18.34;32.44
51053;BME280;37093;37.716;-122.060;2023-04-26T08:10:41;99808.65;;;18.07;32.71
51053;BME280;37093;37.716;-122.060;2023-04-26T08:13:10;99806.46;;;18.23;32.83
51053;BME280;37093;37.716;-122.060;2023-04-26T08:15:38;99805.40;;;18.09;32.75
51053;BME280;37093;37.716;-122.060;2023-04-26T08:18:06;99807.99;;;18.07;32.74
51053;BME280;37093;37.716;-122.060;2023-04-26T08:20:35;99807.03;;;18.05;33.02
51053;BME280;37093;37.716;-122.060;2023-04-26T08:23:04;99806.61;;;18.11;33.10
51053;BME280;37093;37.716;-122.060;2023-04-26T08:25:32;99804.22;;;18.00;33.91
51053;BME280;37093;37.716;-122.060;2023-04-26T08:28:01;99803.02;;;17.99;34.02
51053;BME280;37093;37.716;-122.060;2023-04-26T08:30:29;99802.52;;;17.92;34.84
51053;BME280;37093;37.716;-122.060;2023-04-26T08:32:58;99799.54;;;17.97;34.90
51053;BME280;37093;37.716;-122.060;2023-04-26T08:35:26;99804.45;;;17.88;35.05
51053;BME280;37093;37.716;-122.060;2023-04-26T08:37:55;99802.32;;;17.96;35.29
51053;BME280;37093;37.716;-122.060;2023-04-26T08:40:24;99809.04;;;17.98;35.99
51053;BME280;37093;37.716;-122.060;2023-04-26T08:42:52;99809.35;;;17.74;36.70
51053;BME280;37093;37.716;-122.060;2023-04-26T08:45:22;99809.46;;;17.36;36.60
51053;BME280;37093;37.716;-122.060;2023-04-26T08:47:52;99807.77;;;17.09;37.52
51053;BME280;37093;37.716;-122.060;2023-04-26T08:50:22;99803.19;;;17.09;36.02
51053;BME280;37093;37.716;-122.060;2023-04-26T08:52:51;99803.28;;;17.21;35.31
51053;BME280;37093;37.716;-122.060;2023-04-26T08:55:20;99802.73;;;16.48;37.83
51053;BME280;37093;37.716;-122.060;2023-04-26T08:57:50;99801.71;;;17.02;36.97
51053;BME280;37093;37.716;-122.060;2023-04-26T09:00:19;99794.72;;;17.24;36.91
51053;BME280;37093;37.716;-122.060;2023-04-26T09:02:49;99794.53;;;16.34;40.37
51053;BME280;37093;37.716;-122.060;2023-04-26T09:05:18;99798.17;;;17.03;37.81
51053;BME280;37093;37.716;-122.060;2023-04-26T09:07:47;99795.90;;;17.18;36.48
51053;BME280;37093;37.716;-122.060;2023-04-26T09:10:19;99793.57;;;17.06;38.18
51053;BME280;37093;37.716;-122.060;2023-04-26T09:12:50;99787.30;;;16.98;37.66
51053;BME280;37093;37.716;-122.060;2023-04-26T09:15:21;99789.38;;;16.96;37.49
51053;BME280;37093;37.716;-122.060;2023-04-26T09:17:49;99787.21;;;16.78;37.18
51053;BME280;37093;37.716;-122.060;2023-04-26T09:20:21;99787.76;;;17.00;37.95
51053;BME280;37093;37.716;-122.060;2023-04-26T09:22:50;99787.44;;;16.86;38.47
51053;BME280;37093;37.716;-122.060;2023-04-26T09:25:26;99783.90;;;16.85;37.59
51053;BME280;37093;37.716;-122.060;2023-04-26T09:27:56;99782.05;;;17.27;37.02
51053;BME280;37093;37.716;-122.060;2023-04-26T09:30:25;99777.11;;;16.97;36.60
51053;BME280;37093;37.716;-122.060;2023-04-26T09:32:56;99774.41;;;17.31;36.17
51053;BME280;37093;37.716;-122.060;2023-04-26T09:35:28;99773.49;;;16.75;36.55
51053;BME280;37093;37.716;-122.060;2023-04-26T09:37:59;99772.33;;;17.09;36.55
51053;BME280;37093;37.716;-122.060;2023-04-26T09:40:29;99770.93;;;17.37;36.49
51053;BME280;37093;37.716;-122.060;2023-04-26T09:42:59;99770.61;;;17.17;36.70
51053;BME280;37093;37.716;-122.060;2023-04-26T09:45:29;99772.69;;;17.38;36.92
51053;BME280;37093;37.716;-122.060;2023-04-26T09:48:15;99771.98;;;17.38;37.08
51053;BME280;37093;37.716;-122.060;2023-04-26T09:50:44;99767.49;;;17.35;36.39
51053;BME280;37093;37.716;-122.060;2023-04-26T09:53:25;99767.60;;;17.16;36.67
51053;BME280;37093;37.716;-122.060;2023-04-26T09:55:54;99768.58;;;17.07;36.47
51053;BME280;37093;37.716;-122.060;2023-04-26T09:58:23;99769.22;;;17.38;37.12
51053;BME280;37093;37.716;-122.060;2023-04-26T10:00:51;99768.68;;;17.14;37.07
51053;BME280;37093;37.716;-122.060;2023-04-26T10:03:21;99767.62;;;16.91;36.56
51053;BME280;37093;37.716;-122.060;2023-04-26T10:05:49;99766.55;;;17.09;36.66
51053;BME280;37093;37.716;-122.060;2023-04-26T10:08:18;99769.25;;;17.43;36.09
51053;BME280;37093;37.716;-122.060;2023-04-26T10:10:48;99767.69;;;17.73;36.08
51053;BME280;37093;37.716;-122.060;2023-04-26T10:13:18;99767.96;;;17.94;35.66
51053;BME280;37093;37.716;-122.060;2023-04-26T10:15:48;99776.06;;;17.61;35.70
51053;BME280;37093;37.716;-122.060;2023-04-26T10:18:16;99778.39;;;17.70;35.34
51053;BME280;37093;37.716;-122.060;2023-04-26T10:20:49;99781.40;;;18.16;35.38
51053;BME280;37093;37.716;-122.060;2023-04-26T10:23:20;99781.14;;;17.90;35.83
51053;BME280;37093;37.716;-122.060;2023-04-26T10:25:50;99780.40;;;17.91;35.64
51053;BME280;37093;37.716;-122.060;2023-04-26T10:28:53;99779.39;;;17.82;35.57
51053;BME280;37093;37.716;-122.060;2023-04-26T10:31:22;99778.11;;;17.57;35.28
51053;BME280;37093;37.716;-122.060;2023-04-26T10:34:18;99772.85;;;17.62;34.81
51053;BME280;37093;37.716;-122.060;2023-04-26T10:37:19;99775.57;;;17.37;35.07
51053;BME280;37093;37.716;-122.060;2023-04-26T10:39:48;99778.29;;;17.59;35.37
51053;BME280;37093;37.716;-122.060;2023-04-26T10:42:19;99778.66;;;17.89;34.78
51053;BME280;37093;37.716;-122.060;2023-04-26T10:44:47;99780.54;;;17.85;35.01
51053;BME280;37093;37.716;-122.060;2023-04-26T10:47:27;99781.94;;;17.79;35.60
51053;BME280;37093;37.716;-122.060;2023-04-26T10:50:07;99787.58;;;17.21;35.86
51053;BME280;37093;37.716;-122.060;2023-04-26T10:52:36;99782.68;;;17.47;35.95
51053;BME280;37093;37.716;-122.060;2023-04-26T10:55:06;99780.88;;;17.64;35.78
51053;BME280;37093;37.716;-122.060;2023-04-26T10:57:51;99780.54;;;17.43;35.69
51053;BME280;37093;37.716;-122.060;2023-04-26T11:00:29;99778.52;;;17.58;35.97
51053;BME280;37093;37.716;-122.060;2023-04-26T11:03:01;99783.23;;;17.54;36.37
51053;BME280;37093;37.716;-122.060;2023-04-26T11:05:50;99786.57;;;17.41;37.07
51053;BME280;37093;37.716;-122.060;2023-04-26T11:08:23;99786.93;;;17.22;37.53
51053;BME280;37093;37.716;-122.060;2023-04-26T11:10:58;99785.99;;;17.02;37.39
51053;BME280;37093;37.716;-122.060;2023-04-26T11:13:28;99786.27;;;16.96;37.71
51053;BME280;37093;37.716;-122.060;2023-04-26T11:16:01;99787.83;;;17.08;37.86
51053;BME280;37093;37.716;-122.060;2023-04-26T11:18:30;99785.06;;;16.79;38.49
51053;BME280;37093;37.716;-122.060;2023-04-26T11:20:59;99783.76;;;16.92;38.26
51053;BME280;37093;37.716;-122.060;2023-04-26T11:23:29;99781.24;;;16.88;38.13
51053;BME280;37093;37.716;-122.060;2023-04-26T11:25:58;99778.76;;;16.56;38.44
51053;BME280;37093;37.716;-122.060;2023-04-26T11:28:27;99776.39;;;16.54;38.70
51053;BME280;37093;37.716;-122.060;2023-04-26T11:30:56;99777.81;;;17.01;38.56
51053;BME280;37093;37.716;-122.060;2023-04-26T11:33:25;99781.18;;;16.55;38.49
51053;BME280;37093;37.716;-122.060;2023-04-26T11:35:56;99782.00;;;16.71;38.50
51053;BME280;37093;37.716;-122.060;2023-04-26T11:38:27;99787.36;;;16.50;38.47
51053;BME280;37093;37.716;-122.060;2023-04-26T11:40:58;99789.06;;;16.47;38.19
51053;BME280;37093;37.716;-122.060;2023-04-26T11:43:34;99787.56;;;16.45;38.68
51053;BME280;37093;37.716;-122.060;2023-04-26T12:02:47;99788.38;;;16.01;41.56
51053;BME280;37093;37.716;-122.060;2023-04-26T12:05:23;99785.21;;;14.55;40.13
51053;BME280;37093;37.716;-122.060;2023-04-26T12:07:51;99786.96;;;15.30;38.23
51053;BME280;37093;37.716;-122.060;2023-04-26T12:10:23;99784.10;;;16.91;37.10
51053;BME280;37093;37.716;-122.060;2023-04-26T12:12:52;99782.17;;;16.89;37.22
51053;BME280;37093;37.716;-122.060;2023-04-26T12:15:24;99779.76;;;16.60;37.42
51053;BME280;37093;37.716;-122.060;2023-04-26T12:17:54;99776.00;;;16.39;38.32
51053;BME280;37093;37.716;-122.060;2023-04-26T12:20:31;99778.65;;;16.24;38.79
51053;BME280;37093;37.716;-122.060;2023-04-26T12:23:02;99776.68;;;16.37;39.40
51053;BME280;37093;37.716;-122.060;2023-04-26T12:25:32;99781.51;;;16.58;39.89
51053;BME280;37093;37.716;-122.060;2023-04-26T12:28:02;99782.16;;;16.29;39.77
51053;BME280;37093;37.716;-122.060;2023-04-26T12:30:31;99785.19;;;16.54;39.57
51053;BME280;37093;37.716;-122.060;2023-04-26T12:32:59;99786.31;;;16.24;39.85
51053;BME280;37093;37.716;-122.060;2023-04-26T12:35:28;99790.32;;;16.24;39.89
51053;BME280;37093;37.716;-122.060;2023-04-26T12:37:56;99789.19;;;16.22;39.75
51053;BME280;37093;37.716;-122.060;2023-04-26T12:40:26;99788.33;;;16.20;39.00
51053;BME280;37093;37.716;-122.060;2023-04-26T12:42:56;99789.33;;;16.22;39.04
51053;BME280;37093;37.716;-122.060;2023-04-26T12:45:25;99793.06;;;16.17;39.12
51053;BME280;37093;37.716;-122.060;2023-04-26T12:47:54;99797.82;;;16.30;39.67
51053;BME280;37093;37.716;-122.060;2023-04-26T12:50:22;99799.93;;;16.18;40.70
51053;BME280;37093;37.716;-122.060;2023-04-26T12:52:51;99805.75;;;15.75;41.06
51053;BME280;37093;37.716;-122.060;2023-04-26T12:55:19;99803.06;;;16.04;41.30
51053;BME280;37093;37.716;-122.060;2023-04-26T12:57:48;99802.98;;;15.54;42.05